Time;durP1;ratioP1;P1;durP2;ratioP2;P2;SDS_P1;SDS_P2;PMS_P1;PMS_P2;Temp;Humidity;BMP_temperature;BMP_pressure;BME280_temperature;BME280_humidity;BME280_pressure;Samples;Min_cycle;Max_cycle;Signal;HPM_P1;HPM_P2
2022/11/24 00:01:46;;;;;;;8.77;5.60;;;;;;;;;;6091794;23;20026;-87
2022/11/24 00:04:20;;;;;;;7.82;5.43;;;;;;;;;;6091160;23;20022;-87
2022/11/24 00:06:47;;;;;;;7.93;5.07;;;;;;;;;;6089193;23;20421;-86
2022/11/24 00:09:33;;;;;;;9.10;5.35;;;;;;;;;;6066649;23;20074;-87
2022/11/24 00:12:08;;;;;;;6.18;3.63;;;;;;;;;;6060031;23;20078;-86
2022/11/24 00:14:42;;;;;;;8.75;5.03;;;;;;;;;;6062458;23;20460;-86
2022/11/24 00:17:09;;;;;;;7.93;4.50;;;;;;;;;;6059816;23;20078;-87
2022/11/24 00:19:36;;;;;;;8.18;5.22;;;;;;;;;;6061571;23;20114;-86
2022/11/24 00:22:10;;;;;;;7.90;5.15;;;;;;;;;;6060988;23;20090;-86
2022/11/24 00:24:37;;;;;;;7.72;4.68;;;;;;;;;;6060063;23;20452;-87
2022/11/24 00:27:11;;;;;;;8.32;5.07;;;;;;;;;;6061803;23;20078;-88
2022/11/24 00:29:38;;;;;;;9.93;4.20;;;;;;;;;;6062012;23;20027;-87
2022/11/24 00:32:06;;;;;;;9.00;5.43;;;;;;;;;;6062284;23;20074;-87
2022/11/24 00:34:40;;;;;;;7.00;4.15;;;;;;;;;;6061396;23;20082;-88
2022/11/24 00:37:08;;;;;;;9.98;4.50;;;;;;;;;;6060861;23;20085;-86
2022/11/24 00:39:42;;;;;;;9.00;5.07;;;;;;;;;;6060741;23;20023;-87
2022/11/24 00:42:09;;;;;;;10.77;4.55;;;;;;;;;;6059854;23;20521;-87
2022/11/24 00:44:36;;;;;;;9.10;5.07;;;;;;;;;;6061537;23;20037;-87
2022/11/24 00:47:11;;;;;;;7.22;4.47;;;;;;;;;;6059948;23;20078;-88
2022/11/24 00:49:38;;;;;;;7.32;4.78;;;;;;;;;;6062555;23;20113;-86
2022/11/24 00:52:12;;;;;;;10.82;5.18;;;;;;;;;;6060758;23;20082;-88
2022/11/24 00:54:39;;;;;;;8.13;4.35;;;;;;;;;;6062261;23;20026;-87
2022/11/24 00:57:06;;;;;;;5.95;3.63;;;;;;;;;;6061691;23;20027;-86
2022/11/24 00:59:41;;;;;;;7.78;4.72;;;;;;;;;;6062438;23;20066;-87
2022/11/24 01:02:08;;;;;;;6.28;4.57;;;;;;;;;;6063753;23;20045;-87
2022/11/24 01:04:42;;;;;;;8.15;4.05;;;;;;;;;;6063155;23;20088;-86
2022/11/24 01:07:09;;;;;;;6.03;3.80;;;;;;;;;;6062732;23;20189;-86
2022/11/24 01:09:57;;;;;;;9.63;5.32;;;;;;;;;;6068670;23;20037;-88
2022/11/24 01:12:32;;;;;;;8.85;4.35;;;;;;;;;;6092259;23;20069;-86
2022/11/24 01:15:06;;;;;;;7.22;4.05;;;;;;;;;;6068835;23;20052;-89
2022/11/24 01:17:40;;;;;;;9.13;5.00;;;;;;;;;;6092748;23;20476;-87
2022/11/24 01:20:07;;;;;;;8.75;4.72;;;;;;;;;;6092407;23;20026;-87
2022/11/24 01:22:34;;;;;;;8.88;5.13;;;;;;;;;;6092932;23;20078;-87
2022/11/24 01:25:12;;;;;;;6.28;3.90;;;;;;;;;;6092965;23;20030;-86
2022/11/24 01:27:39;;;;;;;7.40;4.30;;;;;;;;;;6092797;23;20022;-87
2022/11/24 01:30:13;;;;;;;6.95;4.05;;;;;;;;;;6091631;23;20035;-87
2022/11/24 01:32:40;;;;;;;7.88;3.92;;;;;;;;;;6092686;23;20018;-87
2022/11/24 01:35:07;;;;;;;5.90;4.25;;;;;;;;;;6066668;23;20086;-87
2022/11/24 01:37:42;;;;;;;7.13;4.13;;;;;;;;;;6068663;23;20030;-87
2022/11/24 01:40:09;;;;;;;7.53;4.13;;;;;;;;;;6091114;23;20026;-86
2022/11/24 01:42:48;;;;;;;12.32;5.18;;;;;;;;;;6068852;23;20026;-87
2022/11/24 01:45:28;;;;;;;8.13;4.30;;;;;;;;;;6093074;23;20476;-85
2022/11/24 01:48:04;;;;;;;8.20;4.88;;;;;;;;;;6091981;23;20030;-86
2022/11/24 01:50:33;;;;;;;7.95;4.47;;;;;;;;;;6067011;23;20037;-87
2022/11/24 01:53:00;;;;;;;9.05;5.20;;;;;;;;;;6092677;23;20090;-87
2022/11/24 01:55:36;;;;;;;9.02;5.18;;;;;;;;;;6067735;23;20026;-88
2022/11/24 01:58:18;;;;;;;9.68;5.00;;;;;;;;;;6092233;23;20026;-85
2022/11/24 02:00:52;;;;;;;9.85;5.32;;;;;;;;;;6091287;23;20026;-88
2022/11/24 02:03:22;;;;;;;6.50;3.75;;;;;;;;;;6066138;23;20090;-87
2022/11/24 02:06:08;;;;;;;8.45;5.03;;;;;;;;;;6066619;23;20074;-87
2022/11/24 02:08:46;;;;;;;8.77;4.63;;;;;;;;;;6093437;23;20023;-87
2022/11/24 02:11:21;;;;;;;9.48;5.70;;;;;;;;;;6090906;23;20710;-86
2022/11/24 02:13:55;;;;;;;8.48;4.55;;;;;;;;;;6091492;23;20030;-86
2022/11/24 02:16:23;;;;;;;9.38;5.03;;;;;;;;;;6091785;23;20030;-87
2022/11/24 02:18:57;;;;;;;8.70;4.70;;;;;;;;;;6092678;23;20026;-86
2022/11/24 02:21:24;;;;;;;9.52;5.53;;;;;;;;;;6092189;23;20023;-87
2022/11/24 02:23:59;;;;;;;9.75;4.88;;;;;;;;;;6066251;23;20053;-87
2022/11/24 02:26:46;;;;;;;10.32;5.40;;;;;;;;;;6067998;23;20023;-86
2022/11/24 02:29:14;;;;;;;9.23;5.90;;;;;;;;;;6066680;23;20077;-86
2022/11/24 02:31:51;;;;;;;10.00;5.35;;;;;;;;;;6066174;23;20487;-87
2022/11/24 02:34:18;;;;;;;11.02;5.40;;;;;;;;;;6091936;23;20030;-86
2022/11/24 02:36:53;;;;;;;9.40;4.80;;;;;;;;;;6067499;23;20538;-87
2022/11/24 02:39:20;;;;;;;10.98;5.82;;;;;;;;;;6091008;23;20081;-86
2022/11/24 02:41:56;;;;;;;9.75;5.32;;;;;;;;;;6066589;23;20026;-86
2022/11/24 02:44:32;;;;;;;9.93;4.80;;;;;;;;;;6090875;23;20467;-86
2022/11/24 02:47:10;;;;;;;10.55;5.25;;;;;;;;;;6065000;23;20471;-86
2022/11/24 02:49:44;;;;;;;9.18;4.95;;;;;;;;;;6092598;23;20495;-85
2022/11/24 02:52:11;;;;;;;8.57;4.72;;;;;;;;;;6092048;23;20026;-86
2022/11/24 02:54:45;;;;;;;10.45;4.90;;;;;;;;;;6091274;23;20023;-85
2022/11/24 02:57:12;;;;;;;8.88;5.50;;;;;;;;;;6091418;23;20030;-85
2022/11/24 02:59:46;;;;;;;9.38;5.10;;;;;;;;;;6091971;23;20082;-85
2022/11/24 03:02:13;;;;;;;10.48;5.88;;;;;;;;;;6091259;23;20074;-86
2022/11/24 03:04:41;;;;;;;;;;;;;;;;;;6092303;23;20105;-86
2022/11/24 03:07:15;;;;;;;7.70;4.05;;;;;;;;;;6092543;23;19996;-84
2022/11/24 03:09:42;;;;;;;9.25;5.25;;;;;;;;;;6091350;23;20056;-85
2022/11/24 03:12:22;;;;;;;7.18;3.97;;;;;;;;;;6037746;23;20342;-87
2022/11/24 03:14:50;;;;;;;11.60;5.38;;;;;;;;;;6063051;23;20038;-85
2022/11/24 03:17:24;;;;;;;9.02;4.93;;;;;;;;;;6040241;23;20101;-85
2022/11/24 03:19:51;;;;;;;8.80;5.15;;;;;;;;;;6063823;23;20051;-85
2022/11/24 03:22:18;;;;;;;8.43;4.05;;;;;;;;;;6063424;23;20027;-84
2022/11/24 03:24:52;;;;;;;7.88;3.90;;;;;;;;;;6039442;23;20035;-87
2022/11/24 03:27:19;;;;;;;9.00;4.55;;;;;;;;;;6062828;23;20522;-85
2022/11/24 03:29:53;;;;;;;11.63;6.32;;;;;;;;;;6062107;23;20030;-86
2022/11/24 03:32:20;;;;;;;6.90;3.53;;;;;;;;;;6062861;23;20397;-85
2022/11/24 03:34:47;;;;;;;12.57;6.53;;;;;;;;;;6062030;23;20106;-85
2022/11/24 03:37:22;;;;;;;10.98;6.05;;;;;;;;;;6063263;23;20412;-85
2022/11/24 03:39:49;;;;;;;6.43;3.10;;;;;;;;;;6062861;23;20082;-85
2022/11/24 03:42:16;;;;;;;7.75;3.60;;;;;;;;;;6038180;23;20389;-82
2022/11/24 03:44:50;;;;;;;8.77;4.65;;;;;;;;;;6062614;23;20042;-86
2022/11/24 03:47:17;;;;;;;10.48;6.10;;;;;;;;;;6038673;23;20026;-86
2022/11/24 03:49:44;;;;;;;8.05;4.32;;;;;;;;;;6063707;23;20113;-86
2022/11/24 03:52:19;;;;;;;9.35;4.68;;;;;;;;;;6062521;23;20038;-85
2022/11/24 03:54:46;;;;;;;10.45;5.25;;;;;;;;;;6038273;23;20023;-85
2022/11/24 03:57:20;;;;;;;7.50;3.88;;;;;;;;;;6062359;23;20027;-84
2022/11/24 03:59:47;;;;;;;10.60;5.93;;;;;;;;;;6063740;23;20090;-85
2022/11/24 04:02:14;;;;;;;8.98;4.80;;;;;;;;;;6037434;23;20468;-84
2022/11/24 04:04:50;;;;;;;11.85;6.35;;;;;;;;;;6038933;23;20057;-85
2022/11/24 04:07:18;;;;;;;11.00;5.38;;;;;;;;;;6038167;23;20105;-85
2022/11/24 04:09:45;;;;;;;7.80;4.35;;;;;;;;;;6038932;23;20034;-84
2022/11/24 04:12:44;;;;;;;9.57;5.32;;;;;;;;;;6060547;23;20034;-85
2022/11/24 04:15:12;;;;;;;7.53;3.83;;;;;;;;;;6060867;23;20027;-84
2022/11/24 04:17:48;;;;;;;10.18;5.13;;;;;;;;;;6061252;23;20416;-84
2022/11/24 04:20:16;;;;;;;11.05;5.53;;;;;;;;;;6060636;23;20031;-84
2022/11/24 04:22:50;;;;;;;8.93;4.30;;;;;;;;;;6059970;23;20027;-87
2022/11/24 04:25:30;;;;;;;8.15;4.82;;;;;;;;;;6062737;23;20030;-85
2022/11/24 04:27:58;;;;;;;12.05;5.10;;;;;;;;;;6062341;23;20050;-83
2022/11/24 04:30:32;;;;;;;5.35;2.92;;;;;;;;;;6061109;23;20026;-84
2022/11/24 04:32:59;;;;;;;6.85;4.55;;;;;;;;;;6061019;23;20405;-86
2022/11/24 04:35:27;;;;;;;10.38;4.72;;;;;;;;;;6062392;23;20087;-85
2022/11/24 04:38:04;;;;;;;11.43;6.28;;;;;;;;;;6061292;23;20415;-85
2022/11/24 04:40:31;;;;;;;8.00;3.47;;;;;;;;;;6060576;23;20613;-84
2022/11/24 04:43:05;;;;;;;11.45;5.60;;;;;;;;;;6061441;23;20023;-83
2022/11/24 04:45:32;;;;;;;9.30;3.30;;;;;;;;;;6060726;23;20079;-83
2022/11/24 04:47:59;;;;;;;6.75;3.38;;;;;;;;;;6062549;23;20515;-83
2022/11/24 04:50:33;;;;;;;5.70;3.00;;;;;;;;;;6060964;23;20089;-83
2022/11/24 04:53:00;;;;;;;7.53;3.55;;;;;;;;;;6061820;23;20059;-84
2022/11/24 04:55:34;;;;;;;7.63;3.65;;;;;;;;;;6061301;23;20030;-84
2022/11/24 04:58:08;;;;;;;7.82;3.88;;;;;;;;;;6060980;23;20418;-83
2022/11/24 05:00:42;;;;;;;10.88;5.15;;;;;;;;;;6061053;23;20015;-84
2022/11/24 05:03:09;;;;;;;7.18;3.75;;;;;;;;;;6061640;23;20038;-85
2022/11/24 05:05:36;;;;;;;11.45;4.68;;;;;;;;;;6062841;23;20054;-83
2022/11/24 05:08:11;;;;;;;9.23;4.13;;;;;;;;;;6060871;23;20031;-84
2022/11/24 05:10:44;;;;;;;12.63;5.90;;;;;;;;;;6072482;23;20022;-83
2022/11/24 05:13:26;;;;;;;9.73;4.90;;;;;;;;;;6068865;23;20551;-84
2022/11/24 05:15:53;;;;;;;9.85;5.35;;;;;;;;;;6065808;23;20057;-83
2022/11/24 05:18:27;;;;;;;10.10;4.53;;;;;;;;;;6090883;23;20019;-83
2022/11/24 05:20:55;;;;;;;9.40;4.65;;;;;;;;;;6091822;23;20472;-84
2022/11/24 05:23:29;;;;;;;8.45;4.95;;;;;;;;;;6090757;23;20050;-83
2022/11/24 05:26:00;;;;;;;10.18;5.90;;;;;;;;;;6065149;23;20347;-84
2022/11/24 05:28:27;;;;;;;7.82;3.80;;;;;;;;;;6065635;23;20058;-84
2022/11/24 05:31:01;;;;;;;7.03;3.80;;;;;;;;;;6067022;23;20396;-85
2022/11/24 05:33:28;;;;;;;;;;;;;;;;;;6090908;23;20507;-84
2022/11/24 05:36:04;;;;;;;9.52;4.05;;;;;;;;;;6065814;23;19988;-85
2022/11/24 05:38:32;;;;;;;9.18;4.75;;;;;;;;;;6065568;23;20098;-83
2022/11/24 05:41:00;;;;;;;9.95;4.47;;;;;;;;;;6088526;23;20654;-84
2022/11/24 05:43:34;;;;;;;8.52;4.85;;;;;;;;;;6088896;23;20490;-85
2022/11/24 05:46:01;;;;;;;6.80;3.88;;;;;;;;;;6088272;23;20464;-84
2022/11/24 05:48:35;;;;;;;8.52;3.53;;;;;;;;;;6063202;23;20078;-85
2022/11/24 05:51:02;;;;;;;9.70;4.60;;;;;;;;;;6064647;23;20026;-85
2022/11/24 05:53:36;;;;;;;11.85;5.93;;;;;;;;;;6091742;23;20400;-85
2022/11/24 05:56:03;;;;;;;9.23;5.15;;;;;;;;;;6092541;23;20511;-84
2022/11/24 05:58:31;;;;;;;;;;;;;;;;;;6067822;23;20026;-86
2022/11/24 06:01:06;;;;;;;8.98;3.95;;;;;;;;;;6069598;23;19924;-86
2022/11/24 06:03:33;;;;;;;13.90;7.40;;;;;;;;;;6092681;23;20085;-84
2022/11/24 06:06:07;;;;;;;9.00;4.28;;;;;;;;;;6093178;23;20023;-84
2022/11/24 06:08:34;;;;;;;11.48;6.25;;;;;;;;;;6093427;23;20089;-86
2022/11/24 06:11:15;;;;;;;8.98;4.88;;;;;;;;;;6092870;23;20093;-85
2022/11/24 06:13:49;;;;;;;10.50;4.85;;;;;;;;;;6068772;23;20069;-84
2022/11/24 06:16:16;;;;;;;9.70;4.28;;;;;;;;;;6067170;23;20026;-86
2022/11/24 06:18:50;;;;;;;12.98;7.47;;;;;;;;;;6068124;23;20049;-85
2022/11/24 06:21:17;;;;;;;7.28;4.40;;;;;;;;;;6091752;23;20027;-87
2022/11/24 06:23:47;;;;;;;14.48;5.80;;;;;;;;;;6067512;23;20018;-85
2022/11/24 06:26:21;;;;;;;8.50;4.15;;;;;;;;;;6091885;23;20032;-83
2022/11/24 06:28:48;;;;;;;14.13;7.10;;;;;;;;;;6093405;23;20681;-84
2022/11/24 06:31:22;;;;;;;14.23;7.53;;;;;;;;;;6069651;23;20093;-84
2022/11/24 06:33:50;;;;;;;;;;;;;;;;;;6093341;23;20030;-84
2022/11/24 06:36:17;;;;;;;14.02;6.50;;;;;;;;;;6091060;23;19917;-84
2022/11/24 06:38:51;;;;;;;14.02;6.88;;;;;;;;;;6068557;23;20033;-84
2022/11/24 06:41:18;;;;;;;13.18;5.93;;;;;;;;;;6066727;23;20024;-84
2022/11/24 06:43:52;;;;;;;14.55;6.15;;;;;;;;;;6092803;23;20026;-85
2022/11/24 06:46:20;;;;;;;13.15;7.80;;;;;;;;;;6093740;23;20502;-84
2022/11/24 06:48:47;;;;;;;12.60;6.15;;;;;;;;;;6092720;23;20030;-85
2022/11/24 06:51:21;;;;;;;13.95;7.07;;;;;;;;;;6093187;23;20026;-85
2022/11/24 06:53:48;;;;;;;14.52;6.18;;;;;;;;;;6093682;23;20029;-85
2022/11/24 06:56:22;;;;;;;13.88;6.90;;;;;;;;;;6068240;23;20030;-84
2022/11/24 06:58:50;;;;;;;14.85;8.10;;;;;;;;;;6092043;23;20101;-85
2022/11/24 07:01:22;;;;;;;15.02;8.20;;;;;;;;;;6067921;23;20034;-84
2022/11/24 07:03:56;;;;;;;;;;;;;;;;;;6068784;23;20460;-84
2022/11/24 07:06:24;;;;;;;14.82;7.97;;;;;;;;;;6092075;23;19921;-84
2022/11/24 07:08:58;;;;;;;15.95;8.07;;;;;;;;;;6092946;23;20033;-84
2022/11/24 07:11:38;;;;;;;18.55;7.95;;;;;;;;;;6092178;23;20629;-84
2022/11/24 07:14:12;;;;;;;16.08;7.25;;;;;;;;;;6092452;23;20041;-84
2022/11/24 07:16:39;;;;;;;10.80;5.35;;;;;;;;;;6092622;23;20030;-85
2022/11/24 07:19:13;;;;;;;19.15;8.73;;;;;;;;;;6093695;23;20026;-84
2022/11/24 07:21:43;;;;;;;11.45;5.18;;;;;;;;;;6069098;23;20441;-84
2022/11/24 07:24:11;;;;;;;22.33;9.90;;;;;;;;;;6094043;23;20121;-84
2022/11/24 07:26:45;;;;;;;17.20;8.70;;;;;;;;;;6091959;23;20101;-84
2022/11/24 07:29:12;;;;;;;16.08;8.48;;;;;;;;;;6092823;23;20491;-85
2022/11/24 07:31:39;;;;;;;15.27;8.50;;;;;;;;;;6067020;23;20034;-84
2022/11/24 07:34:13;;;;;;;11.52;5.93;;;;;;;;;;6091370;23;20023;-83
2022/11/24 07:36:40;;;;;;;;;;;;;;;;;;6091980;23;20062;-83
2022/11/24 07:39:15;;;;;;;10.57;5.50;;;;;;;;;;6091348;23;20000;-84
2022/11/24 07:41:42;;;;;;;19.40;8.50;;;;;;;;;;6092242;23;20105;-85
2022/11/24 07:44:09;;;;;;;18.05;8.32;;;;;;;;;;6091987;23;20097;-82
2022/11/24 07:46:43;;;;;;;23.08;9.75;;;;;;;;;;6091414;23;20352;-84
2022/11/24 07:49:10;;;;;;;19.38;7.78;;;;;;;;;;6091679;23;20113;-83
2022/11/24 07:51:44;;;;;;;16.63;8.20;;;;;;;;;;6091634;23;20019;-84
2022/11/24 07:54:11;;;;;;;15.48;8.25;;;;;;;;;;6066975;23;20026;-83
2022/11/24 07:56:38;;;;;;;20.95;9.27;;;;;;;;;;6090106;23;20023;-84
2022/11/24 07:59:12;;;;;;;18.48;8.98;;;;;;;;;;6092106;23;20026;-85
2022/11/24 08:01:39;;;;;;;23.33;9.70;;;;;;;;;;6091704;23;20029;-83
2022/11/24 08:04:13;;;;;;;16.70;8.35;;;;;;;;;;6091176;23;20085;-83
2022/11/24 08:06:40;;;;;;;19.38;9.65;;;;;;;;;;6091395;23;20471;-83
2022/11/24 08:09:14;;;;;;;19.00;8.82;;;;;;;;;;6091353;23;20025;-85
2022/11/24 08:11:47;;;;;;;16.50;8.93;;;;;;;;;;6089783;23;20032;-85
2022/11/24 08:14:21;;;;;;;18.92;9.30;;;;;;;;;;6067943;23;20026;-85
2022/11/24 08:16:48;;;;;;;18.00;8.27;;;;;;;;;;6091337;23;20036;-85
2022/11/24 08:19:15;;;;;;;17.63;8.15;;;;;;;;;;6092184;23;20026;-85
2022/11/24 08:21:49;;;;;;;17.30;8.65;;;;;;;;;;6091485;23;20076;-84
2022/11/24 08:24:16;;;;;;;15.43;8.32;;;;;;;;;;6092030;23;20033;-85
2022/11/24 08:26:50;;;;;;;19.27;9.68;;;;;;;;;;6091181;23;20468;-86
2022/11/24 08:29:17;;;;;;;16.58;8.00;;;;;;;;;;6090684;23;20511;-86
2022/11/24 08:31:51;;;;;;;14.85;7.15;;;;;;;;;;6090641;23;20097;-84
2022/11/24 08:34:18;;;;;;;17.65;7.47;;;;;;;;;;6091732;23;20105;-84
2022/11/24 08:36:45;;;;;;;14.52;8.43;;;;;;;;;;6091225;23;20194;-85
2022/11/24 08:39:19;;;;;;;16.27;8.27;;;;;;;;;;6091129;23;20030;-85
2022/11/24 08:41:53;;;;;;;15.23;8.55;;;;;;;;;;6091110;23;20105;-85
2022/11/24 08:44:27;;;;;;;16.15;9.18;;;;;;;;;;6091979;23;20109;-85
2022/11/24 08:47:01;;;;;;;16.90;7.57;;;;;;;;;;6091594;23;20026;-84
2022/11/24 08:49:35;;;;;;;16.98;9.18;;;;;;;;;;6091104;23;20461;-85
2022/11/24 08:52:09;;;;;;;18.13;9.10;;;;;;;;;;6091409;23;20038;-85
2022/11/24 08:54:36;;;;;;;17.23;8.55;;;;;;;;;;6091114;23;20018;-85
2022/11/24 08:57:03;;;;;;;14.50;7.75;;;;;;;;;;6090498;23;20476;-85
2022/11/24 08:59:37;;;;;;;15.07;7.07;;;;;;;;;;6091693;23;20105;-85
2022/11/24 09:02:04;;;;;;;16.63;8.35;;;;;;;;;;6091321;23;20380;-85
2022/11/24 09:04:38;;;;;;;14.57;8.15;;;;;;;;;;6090951;23;20068;-85
2022/11/24 09:07:05;;;;;;;16.27;8.15;;;;;;;;;;6090791;23;20033;-85
2022/11/24 09:09:32;;;;;;;15.73;7.10;;;;;;;;;;6092133;23;20022;-85
2022/11/24 09:12:14;;;;;;;16.52;9.30;;;;;;;;;;6090942;23;20427;-85
2022/11/24 09:14:47;;;;;;;18.02;8.85;;;;;;;;;;6090280;23;20519;-84
2022/11/24 09:17:21;;;;;;;18.45;8.65;;;;;;;;;;6091262;23;20033;-85
2022/11/24 09:19:48;;;;;;;17.30;7.70;;;;;;;;;;6091217;23;20057;-85
2022/11/24 09:22:18;;;;;;;19.00;9.23;;;;;;;;;;6091577;23;20025;-85
2022/11/24 09:24:52;;;;;;;14.18;7.68;;;;;;;;;;6092980;23;20384;-85
2022/11/24 09:27:19;;;;;;;12.73;7.40;;;;;;;;;;6067726;23;20359;-85
2022/11/24 09:29:46;;;;;;;14.98;7.43;;;;;;;;;;6069628;23;20397;-85
2022/11/24 09:32:20;;;;;;;12.55;5.90;;;;;;;;;;6094480;23;20019;-84
2022/11/24 09:34:54;;;;;;;14.70;7.70;;;;;;;;;;6094092;23;20032;-84
2022/11/24 09:37:28;;;;;;;16.52;7.60;;;;;;;;;;6094354;23;20022;-84
2022/11/24 09:40:02;;;;;;;14.63;6.82;;;;;;;;;;6094685;23;20101;-85
2022/11/24 09:42:34;;;;;;;14.05;7.32;;;;;;;;;;6093172;23;20502;-85
2022/11/24 09:45:14;;;;;;;11.68;5.75;;;;;;;;;;6093749;23;20110;-85
2022/11/24 09:48:11;;;;;;;14.65;7.15;;;;;;;;;;6093138;23;20030;-85
2022/11/24 09:50:38;;;;;;;12.85;6.45;;;;;;;;;;6093522;23;20384;-86
2022/11/24 09:53:22;;;;;;;14.00;6.88;;;;;;;;;;6069755;23;20538;-86
2022/11/24 09:55:54;;;;;;;13.55;7.47;;;;;;;;;;6093492;23;20026;-85
2022/11/24 09:58:31;;;;;;;18.33;7.38;;;;;;;;;;6069827;23;20032;-86
2022/11/24 10:00:58;;;;;;;13.68;6.82;;;;;;;;;;6092779;23;20041;-86
2022/11/24 10:03:38;;;;;;;12.90;7.57;;;;;;;;;;6092084;23;20040;-86
2022/11/24 10:06:15;;;;;;;12.63;6.75;;;;;;;;;;6093338;23;20325;-86
2022/11/24 10:09:08;;;;;;;11.23;6.63;;;;;;;;;;6093758;23;20022;-86
2022/11/24 10:12:05;;;;;;;13.00;7.35;;;;;;;;;;6090583;23;20608;-85
2022/11/24 10:14:58;;;;;;;12.77;6.82;;;;;;;;;;6087797;23;20030;-86
2022/11/24 10:17:37;;;;;;;12.75;6.90;;;;;;;;;;6091749;23;20026;-86
2022/11/24 10:20:31;;;;;;;11.32;6.97;;;;;;;;;;6092656;23;20085;-86
2022/11/24 10:23:17;;;;;;;13.20;6.28;;;;;;;;;;6034610;23;20029;-86
2022/11/24 10:25:56;;;;;;;11.75;6.78;;;;;;;;;;6068535;23;20488;-86
2022/11/24 10:28:26;;;;;;;13.02;6.35;;;;;;;;;;6093389;23;20022;-85
2022/11/24 10:31:15;;;;;;;12.77;6.28;;;;;;;;;;6093473;23;20031;-85
2022/11/24 10:33:43;;;;;;;14.05;7.30;;;;;;;;;;6092561;23;20138;-86
2022/11/24 10:36:25;;;;;;;13.55;6.78;;;;;;;;;;6092860;23;20032;-86
2022/11/24 10:39:02;;;;;;;15.88;7.80;;;;;;;;;;6092890;23;20062;-87
2022/11/24 10:41:46;;;;;;;13.73;6.47;;;;;;;;;;6093030;23;20041;-85
2022/11/24 10:44:14;;;;;;;11.57;6.33;;;;;;;;;;6092719;23;20056;-85
2022/11/24 10:46:48;;;;;;;12.32;6.75;;;;;;;;;;6092233;23;20333;-84
2022/11/24 10:49:18;;;;;;;15.25;8.32;;;;;;;;;;6067102;23;20472;-85
2022/11/24 10:51:50;;;;;;;12.75;6.53;;;;;;;;;;6092833;23;20420;-85
2022/11/24 10:54:24;;;;;;;;;;;;;;;;;;6092662;23;20049;-86
2022/11/24 10:56:52;;;;;;;12.10;6.72;;;;;;;;;;6067175;23;19925;-85
2022/11/24 10:59:28;;;;;;;13.32;6.20;;;;;;;;;;6092802;23;20110;-85
2022/11/24 11:02:22;;;;;;;10.23;5.85;;;;;;;;;;6068417;23;20529;-84
2022/11/24 11:04:50;;;;;;;16.98;7.07;;;;;;;;;;6091551;23;20105;-85
2022/11/24 11:07:28;;;;;;;11.93;6.18;;;;;;;;;;6092281;23;20049;-85
2022/11/24 11:10:17;;;;;;;11.52;5.82;;;;;;;;;;6092201;23;20037;-86
2022/11/24 11:12:58;;;;;;;10.82;6.70;;;;;;;;;;6091926;23;20358;-85
2022/11/24 11:15:27;;;;;;;11.77;7.22;;;;;;;;;;6092757;23;20495;-85
2022/11/24 11:18:01;;;;;;;10.77;6.03;;;;;;;;;;6092494;23;20065;-86
2022/11/24 11:20:28;;;;;;;9.98;6.18;;;;;;;;;;6092566;23;20106;-86
2022/11/24 11:22:57;;;;;;;13.27;7.38;;;;;;;;;;6092239;23;20022;-86
2022/11/24 11:25:37;;;;;;;12.25;7.13;;;;;;;;;;6068120;23;20027;-85
2022/11/24 11:28:23;;;;;;;12.73;7.07;;;;;;;;;;6092228;23;20023;-86
2022/11/24 11:30:58;;;;;;;11.50;7.03;;;;;;;;;;6068223;23;20392;-86
2022/11/24 11:33:45;;;;;;;;;;;;;;;;;;6092089;23;20097;-86
2022/11/24 11:36:40;;;;;;;12.07;7.40;;;;;;;;;;6091990;23;19928;-86
2022/11/24 11:39:16;;;;;;;13.52;7.85;;;;;;;;;;6066463;23;20478;-86
2022/11/24 11:41:53;;;;;;;12.25;6.78;;;;;;;;;;6091680;23;20101;-85
2022/11/24 11:44:34;;;;;;;11.57;6.82;;;;;;;;;;6091926;23;20030;-86
2022/11/24 11:47:13;;;;;;;13.07;6.85;;;;;;;;;;6091491;23;20332;-86
2022/11/24 11:49:41;;;;;;;13.60;7.55;;;;;;;;;;6092128;23;20070;-86
2022/11/24 11:52:34;;;;;;;12.98;6.82;;;;;;;;;;6091015;23;20121;-83
2022/11/24 11:55:26;;;;;;;13.30;7.43;;;;;;;;;;6066676;23;20113;-86
2022/11/24 11:58:19;;;;;;;14.05;7.03;;;;;;;;;;6091522;23;20101;-85
2022/11/24 12:00:52;;;;;;;14.30;6.95;;;;;;;;;;6091711;23;20030;-85
2022/11/24 12:03:49;;;;;;;12.63;7.30;;;;;;;;;;6091309;23;20058;-85
2022/11/24 12:06:33;;;;;;;12.93;6.97;;;;;;;;;;6091454;23;20082;-86
2022/11/24 12:09:25;;;;;;;12.05;7.20;;;;;;;;;;6091845;23;20460;-86
2022/11/24 12:12:18;;;;;;;15.10;7.40;;;;;;;;;;6091702;23;20057;-85
2022/11/24 12:15:14;;;;;;;12.98;7.00;;;;;;;;;;6068457;23;20097;-85
2022/11/24 12:17:47;;;;;;;11.38;6.63;;;;;;;;;;6090003;23;20026;-86
2022/11/24 12:20:30;;;;;;;12.48;7.03;;;;;;;;;;6092378;23;20548;-85
2022/11/24 12:23:00;;;;;;;13.07;7.10;;;;;;;;;;6092194;23;20029;-86
2022/11/24 12:25:37;;;;;;;14.85;6.85;;;;;;;;;;6092209;23;20054;-85
2022/11/24 12:28:04;;;;;;;9.95;6.03;;;;;;;;;;6092422;23;20022;-85
2022/11/24 12:30:42;;;;;;;16.42;7.13;;;;;;;;;;6091433;23;20038;-86
2022/11/24 12:33:34;;;;;;;11.35;6.47;;;;;;;;;;6091313;23;20022;-85
2022/11/24 12:36:07;;;;;;;12.00;7.07;;;;;;;;;;6066268;23;20029;-85
2022/11/24 12:38:44;;;;;;;13.02;7.18;;;;;;;;;;6090685;23;20106;-85
2022/11/24 12:41:30;;;;;;;12.82;7.15;;;;;;;;;;6066020;23;20034;-85
2022/11/24 12:44:21;;;;;;;12.25;6.15;;;;;;;;;;6091424;23;20030;-85
2022/11/24 12:46:55;;;;;;;12.90;6.40;;;;;;;;;;6091168;23;20064;-85
2022/11/24 12:49:33;;;;;;;12.40;6.38;;;;;;;;;;6092068;23;20056;-85
2022/11/24 12:52:05;;;;;;;11.40;6.13;;;;;;;;;;6091122;23;20105;-86
2022/11/24 12:54:40;;;;;;;12.43;7.15;;;;;;;;;;6090189;23;20023;-85
2022/11/24 12:57:10;;;;;;;10.75;5.88;;;;;;;;;;6091046;23;20032;-85
2022/11/24 12:59:44;;;;;;;9.57;6.05;;;;;;;;;;6092013;23;20105;-85
2022/11/24 13:02:11;;;;;;;10.27;6.00;;;;;;;;;;6090690;23;20097;-84
2022/11/24 13:05:13;;;;;;;13.32;7.00;;;;;;;;;;6091094;23;20361;-85
2022/11/24 13:07:45;;;;;;;11.35;6.38;;;;;;;;;;6091200;23;20029;-85
2022/11/24 13:10:25;;;;;;;10.77;6.40;;;;;;;;;;6068525;23;20046;-85
2022/11/24 13:13:19;;;;;;;15.73;6.95;;;;;;;;;;6090499;23;20308;-83
2022/11/24 13:15:53;;;;;;;12.02;6.55;;;;;;;;;;6091130;23;20037;-85
2022/11/24 13:18:47;;;;;;;11.60;6.75;;;;;;;;;;6091738;23;20026;-85
2022/11/24 13:21:28;;;;;;;13.20;6.85;;;;;;;;;;6091395;23;20026;-84
2022/11/24 13:24:04;;;;;;;12.88;7.15;;;;;;;;;;6067926;23;20030;-84
2022/11/24 13:26:43;;;;;;;13.48;6.55;;;;;;;;;;6092050;23;20018;-85
2022/11/24 13:29:37;;;;;;;12.15;6.95;;;;;;;;;;6091341;23;20364;-84
2022/11/24 13:32:04;;;;;;;11.13;6.38;;;;;;;;;;6090220;23;20038;-84
2022/11/24 13:34:38;;;;;;;12.77;7.00;;;;;;;;;;6091638;23;20032;-84
2022/11/24 13:37:24;;;;;;;13.00;7.00;;;;;;;;;;6089605;23;20482;-84
2022/11/24 13:40:22;;;;;;;13.82;7.50;;;;;;;;;;6091237;23;20363;-84
2022/11/24 13:42:56;;;;;;;11.77;6.20;;;;;;;;;;6091242;23;20026;-84
2022/11/24 13:45:36;;;;;;;11.13;6.47;;;;;;;;;;6091614;23;20395;-84
2022/11/24 13:48:23;;;;;;;10.60;6.00;;;;;;;;;;6091415;23;20491;-84
2022/11/24 13:50:57;;;;;;;13.68;7.47;;;;;;;;;;6091815;23;20407;-84
2022/11/24 13:53:56;;;;;;;12.48;6.22;;;;;;;;;;6091289;23;20129;-84
2022/11/24 13:56:30;;;;;;;14.05;6.28;;;;;;;;;;6033998;23;20101;-83
2022/11/24 13:58:57;;;;;;;;;;;;;;;;;;6066141;23;20113;-84
2022/11/24 14:01:31;;;;;;;13.35;7.10;;;;;;;;;;6090729;23;19948;-84
2022/11/24 14:04:05;;;;;;;21.17;9.63;;;;;;;;;;6065383;23;20283;-84
2022/11/24 14:06:58;;;;;;;13.10;7.13;;;;;;;;;;6091249;23;20023;-84
2022/11/24 14:09:52;;;;;;;12.27;7.03;;;;;;;;;;6090547;23;20027;-84
2022/11/24 14:12:33;;;;;;;12.95;7.15;;;;;;;;;;6090480;23;20356;-84
2022/11/24 14:15:19;;;;;;;14.02;7.30;;;;;;;;;;6092608;23;20028;-84
2022/11/24 14:17:53;;;;;;;12.60;6.72;;;;;;;;;;6093933;23;20044;-84
2022/11/24 14:20:24;;;;;;;16.65;8.13;;;;;;;;;;6093770;23;20101;-84
2022/11/24 14:22:51;;;;;;;14.70;8.48;;;;;;;;;;6091856;23;20463;-84
2022/11/24 14:25:25;;;;;;;14.65;7.50;;;;;;;;;;6093249;23;20032;-83
2022/11/24 14:27:52;;;;;;;19.65;8.60;;;;;;;;;;6093345;23;20486;-83
2022/11/24 14:30:26;;;;;;;17.10;7.00;;;;;;;;;;6091878;23;20032;-84
2022/11/24 14:32:55;;;;;;;14.65;7.28;;;;;;;;;;6092678;23;20107;-84
2022/11/24 14:35:33;;;;;;;14.07;7.20;;;;;;;;;;6092470;23;20026;-83
2022/11/24 14:38:01;;;;;;;15.35;8.07;;;;;;;;;;6067304;23;20035;-83
2022/11/24 14:40:45;;;;;;;14.88;7.72;;;;;;;;;;6093380;23;20105;-83
2022/11/24 14:43:15;;;;;;;15.05;7.32;;;;;;;;;;6091493;23;20518;-83
2022/11/24 14:45:50;;;;;;;15.88;7.75;;;;;;;;;;6092180;23;20023;-83
2022/11/24 14:48:19;;;;;;;14.57;8.13;;;;;;;;;;6093156;23;20018;-83
2022/11/24 14:50:47;;;;;;;14.55;7.65;;;;;;;;;;6092185;23;20022;-83
2022/11/24 14:53:23;;;;;;;14.00;7.13;;;;;;;;;;6067723;23;20620;-83
2022/11/24 14:56:09;;;;;;;17.05;8.80;;;;;;;;;;6091106;23;20033;-83
2022/11/24 14:58:43;;;;;;;15.60;9.15;;;;;;;;;;6091764;23;20105;-83
2022/11/24 15:01:17;;;;;;;16.80;8.55;;;;;;;;;;6090877;23;20105;-83
2022/11/24 15:04:30;;;;;;;18.05;8.82;;;;;;;;;;6068851;23;20106;-83
2022/11/24 15:07:30;;;;;;;14.20;7.75;;;;;;;;;;6045543;23;20067;-83
2022/11/24 15:10:04;;;;;;;14.45;8.40;;;;;;;;;;6092184;23;20030;-84
2022/11/24 15:12:48;;;;;;;15.70;7.95;;;;;;;;;;6088528;23;20022;-83
2022/11/24 15:15:35;;;;;;;17.00;8.27;;;;;;;;;;6093205;23;20399;-84
2022/11/24 15:18:03;;;;;;;15.43;8.18;;;;;;;;;;6092349;23;20066;-84
2022/11/24 15:20:41;;;;;;;17.73;9.18;;;;;;;;;;6092222;23;20022;-83